Flight Track Log - Related Links

Times and Time Zones

All times are in EDT time to prevent confusion due to time zone crossing. See the N4798T flight status page for this flight to view local times or setup timezone preferences in your user account.

Time Position Orientation Groundspeed Altitude Reporting Facility
EDT Latitude Longitude Course Direction KTS MPH feet Rate Location/Type
Thu 05:43:00 PM 40.3469 -79.7335 66° East  Level Estimated
Thu 05:43:54 PM 40.4331 -79.7294 68° East 95 109 5,100  Level Cleveland Center
Thu 05:44:00 PM 40.3657 -79.7118 41° Northeast  Level FlightAware Approximate
Thu 05:45:00 PM 40.3844 -79.6900 41° Northeast  Level FlightAware Approximate
Thu 05:45:07 PM 40.4389 -79.6939 78° East 93 107 5,500  Level Cleveland Center
Thu 05:46:00 PM 40.4032 -79.6683 41° Northeast  Level FlightAware Approximate
Thu 05:46:07 PM 40.4469 -79.6583 73° East 91 105 5,900  Level Cleveland Center
Thu 05:47:00 PM 40.4012 -79.6356 72° East  Level Estimated
Thu 05:47:08 PM 40.4572 -79.6253 68° East 91 105 6,300  Level Cleveland Center
Thu 05:48:00 PM 40.4183 -79.6115 47° Northeast  Level FlightAware Approximate
Thu 05:48:09 PM 40.4631 -79.5953 76° East 90 104 6,800  Level Cleveland Center
Thu 05:49:00 PM 40.4161 -79.5788 68° East  Level Estimated
Thu 05:49:09 PM 40.4692 -79.5650 75° East 88 101 7,000  Level Cleveland Center
Thu 05:50:10 PM 40.4772 -79.5294 73° East 107 123 7,100 52 Climbing Cleveland Center
Thu 05:51:05 PM 40.4892 -79.4883 69° East 119 137 7,100 -52 Level Cleveland Center
Thu 05:52:05 PM 40.4992 -79.4472 72° East 122 140 7,000 -50 Descending Cleveland Center
Thu 05:53:06 PM 40.5072 -79.4061 76° East 111 128 7,000  Level Cleveland Center
Thu 05:54:06 PM 40.5131 -79.3678 79° East 106 122 7,000  Level Cleveland Center
Thu 05:55:07 PM 40.5125 -79.3269 91° East 109 125 7,000  Level Cleveland Center
Thu 05:56:08 PM 40.5164 -79.2886 82° East 107 123 7,000  Level Cleveland Center
Thu 05:57:08 PM 40.5158 -79.2503 91° East 104 120 7,000 -50 Level Cleveland Center
Thu 05:58:09 PM 40.5217 -79.2147 78° East 104 120 6,900  Descending Cleveland Center
Thu 05:59:09 PM 40.5211 -79.1711 91° East 108 124 7,000 50 Climbing Cleveland Center
Thu 06:00:10 PM 40.5250 -79.1381 81° East 108 124 7,000  Level Cleveland Center
Thu 06:01:11 PM 40.5267 -79.1000 87° East 104 120 7,000  Level Cleveland Center
Thu 06:02:11 PM 40.5303 -79.0614 83° East 106 122 7,000  Level Cleveland Center
Thu 06:03:12 PM 40.5297 -79.0206 91° East 106 122 7,000  Level Cleveland Center
Thu 06:04:12 PM 40.5333 -78.9822 83° East 107 123 7,000  Level Cleveland Center
Thu 06:05:13 PM 40.5350 -78.9439 87° East 107 123 7,000  Level Cleveland Center
Thu 06:06:14 PM 40.5383 -78.9028 84° East 107 123 7,000  Level Cleveland Center
Thu 06:07:14 PM 40.5400 -78.8647 87° East 108 124 7,000  Level Cleveland Center
Thu 06:08:15 PM 40.5436 -78.8236 83° East 107 123 7,000  Level Cleveland Center
Thu 06:09:16 PM 40.5428 -78.7853 92° East 105 121 7,000  Level Cleveland Center
Thu 06:10:16 PM 40.5464 -78.7469 83° East 104 120 7,000  Level Cleveland Center
Thu 06:11:17 PM 40.5375 -78.7089 107° East 105 121 7,000  Level Cleveland Center
Thu 06:12:17 PM 40.5347 -78.6681 95° East 110 127 7,000  Level Cleveland Center
Thu 06:13:18 PM 40.5278 -78.6300 103° East 112 129 7,000 -49 Level Cleveland Center
Thu 06:14:19 PM 40.5231 -78.5864 98° East 110 127 6,900  Descending Cleveland Center
Thu 06:15:19 PM 40.5181 -78.5483 100° East 109 125 7,000 50 Climbing Cleveland Center
Thu 06:16:20 PM 40.5133 -78.5103 99° East 109 125 7,000  Level Cleveland Center
Thu 06:17:21 PM 40.5042 -78.4667 105° East 110 127 7,000  Level Cleveland Center
Thu 06:18:21 PM 40.5014 -78.4286 95° East 110 127 7,000  Level Cleveland Center
Thu 06:19:22 PM 40.4964 -78.3906 100° East 107 123 7,000  Level Cleveland Center
Thu 06:20:22 PM 40.4894 -78.3525 103° East 107 123 7,000  Level Cleveland Center
Thu 06:21:23 PM 40.4822 -78.3119 103° East 108 124 7,000  Level Cleveland Center
Thu 06:22:24 PM 40.4817 -78.2736 91° East 109 125 7,000  Level Cleveland Center
Thu 06:23:24 PM 40.4725 -78.2331 107° East 110 127 7,000 -50 Level Cleveland Center
Thu 06:24:25 PM 40.4653 -78.1978 105° East 109 125 6,900  Descending Cleveland Center
Thu 06:25:26 PM 40.4625 -78.1569 95° East 107 123 7,000 50 Climbing Cleveland Center
Thu 06:26:26 PM 40.4575 -78.1164 99° East 108 124 7,000  Level Cleveland Center
Thu 06:27:27 PM 40.4503 -78.0783 104° East 110 127 7,000  Level Cleveland Center
Thu 06:28:28 PM 40.4431 -78.0378 103° East 110 127 7,000  Level Cleveland Center
Thu 06:30:00 PM 40.4604 -77.9855 66° East  Level FlightAware Approximate
Thu 06:37:00 PM 40.4269 -77.7194 102° East  Level FlightAware Approximate
Thu 06:38:00 PM 40.4211 -77.6829 102° East  Level FlightAware Approximate
Thu 06:39:00 PM 40.4153 -77.6465 102° East  Level FlightAware Approximate
Thu 06:40:00 PM 40.4096 -77.6101 102° East  Level FlightAware Approximate
Thu 06:41:00 PM 40.4038 -77.5737 102° East  Level FlightAware Approximate
Thu 06:42:00 PM 40.3964 -77.5379 111° Southeast  Level FlightAware Approximate
Thu 06:43:00 PM 40.3860 -77.5033 111° Southeast  Level FlightAware Approximate
Thu 06:44:00 PM 40.3757 -77.4687 111° Southeast  Level FlightAware Approximate
Thu 06:45:00 PM 40.3653 -77.4341 111° Southeast  Level FlightAware Approximate
Thu 06:46:00 PM 40.3549 -77.3996 112° Southeast  Level FlightAware Approximate
Thu 06:47:00 PM 40.3478 -77.3638 98° East  Level FlightAware Approximate
Thu 06:48:00 PM 40.3438 -77.3271 98° East  Level FlightAware Approximate
Thu 06:49:00 PM 40.3397 -77.2903 98° East  Level FlightAware Approximate
Thu 06:50:00 PM 40.3356 -77.2535 98° East  Level FlightAware Approximate
Thu 06:51:00 PM 40.3301 -77.2171 105° East  Level FlightAware Approximate
Thu 06:52:00 PM 40.3229 -77.1812 105° East  Level FlightAware Approximate
Thu 06:53:00 PM 40.3157 -77.1453 105° East  Level FlightAware Approximate
Thu 06:54:00 PM 40.3085 -77.1094 105° East  Level FlightAware Approximate
Thu 06:55:00 PM 40.3013 -77.0734 105° East  Level FlightAware Approximate
Thu 06:56:00 PM 40.2825 -77.0476 114° Southeast  Level FlightAware Approximate
Thu 06:57:00 PM 40.2712 -77.0135 114° Southeast  Level FlightAware Approximate
Thu 06:58:00 PM 40.2614 -76.9788 108° East  Level FlightAware Approximate
Thu 06:59:00 PM 40.2525 -76.9435 108° East  Level FlightAware Approximate
Thu 07:00:00 PM 40.2420 -76.9091 114° Southeast  Level FlightAware Approximate
Thu 07:01:00 PM 40.2306 -76.8752 114° Southeast  Level FlightAware Approximate
Thu 07:02:00 PM 40.2193 -76.8412 114° Southeast  Level FlightAware Approximate
Thu 07:03:00 PM 40.2066 -76.8080 118° Southeast  Level FlightAware Approximate
Thu 07:04:00 PM 40.1934 -76.7752 118° Southeast  Level FlightAware Approximate
Thu 07:05:00 PM 40.1932 -76.7626 118° Southeast  Level Estimated
Thu 07:06:00 PM 40.1932 -76.7626 118° Southeast  Level Estimated
Thu 07:07:00 PM 40.1932 -76.7626 118° Southeast  Level Estimated
Thu 07:08:00 PM 40.1932 -76.7626 118° Southeast  Level Estimated
Thu 07:09:00 PM 40.1932 -76.7626 118° Southeast  Level Estimated
Thu 07:10:00 PM 40.1932 -76.7626 118° Southeast  Level Estimated
Thu 07:11:00 PM 40.1932 -76.7626 118° Southeast  Level Estimated

Login

Don't have an account? Register now (free) for customized features, flight alerts, and more!